Davenport, Iowa
Current Conditions -  °F | °C
As of 7:52 AM on Friday 24 Oct 2014 (Local Time) from KDVN Reporting Station
Moderate Fog Moderate Fog  
Wind Chill: 51°   Ceiling: 200
Heat Index: 51°   Visibility: 0mi
Dew Point: 49°   Wind: 3mph
Humidity: 92%   Direction: 150°SSE
Pressure: 30.06"   Gusts: NA
Location:  41.54°N, 90.58°W
Report Text: KDVN 241252Z AUTO 15003KT M1/4SM FG VV002 11/09 A3006 RMK AO2 SLP181 T01060094 TSNO
Loading
Personal Weather Stations






























Interactive Weather Map New forecast layout! Learn more

10-Day Weather Forecast

Advertisements
Track Severe Weather on mobile